Time;durP1;ratioP1;P1;durP2;ratioP2;P2;SDS_P1;SDS_P2;PMS_P1;PMS_P2;Temp;Humidity;BMP_temperature;BMP_pressure;BME280_temperature;BME280_humidity;BME280_pressure;Samples;Min_cycle;Max_cycle;Signal;HPM_P1;HPM_P2
2023/01/06 00:01:17;;;;;;;1.43;0.80;;;5.40;99.90;5.00;101053.00;;;;4909091;28;110863;-65
2023/01/06 00:03:42;;;;;;;1.97;1.47;;;5.10;99.90;5.10;101051.00;;;;4909343;28;93174;-63
2023/01/06 00:06:10;;;;;;;2.00;1.20;;;5.20;99.90;5.10;101054.00;;;;4908886;28;121032;-64
2023/01/06 00:08:37;;;;;;;1.30;1.20;;;5.60;99.90;5.10;101051.00;;;;4910547;28;99402;-64
2023/01/06 00:11:08;;;;;;;1.47;1.10;;;5.20;99.90;5.10;101054.00;;;;4911217;28;92699;-64
2023/01/06 00:13:34;;;;;;;1.63;1.30;;;5.30;99.90;5.10;101060.00;;;;4907909;28;94105;-64
2023/01/06 00:16:09;;;;;;;3.10;1.50;;;5.20;99.90;5.10;101062.00;;;;4908318;28;93423;-64
2023/01/06 00:18:35;;;;;;;2.23;1.30;;;5.40;99.90;5.10;101060.00;;;;4908610;28;97217;-64
2023/01/06 00:21:01;;;;;;;0.87;0.80;;;5.30;99.90;5.10;101059.00;;;;4910378;28;110519;-64
2023/01/06 00:23:27;;;;;;;1.43;1.13;;;5.30;99.90;5.10;101052.00;;;;4912135;28;94404;-65
2023/01/06 00:25:53;;;;;;;1.33;1.00;;;5.30;99.90;5.20;101043.00;;;;4907687;28;122481;-64
2023/01/06 00:28:19;;;;;;;1.70;1.20;;;5.40;99.90;5.10;101047.00;;;;4906110;28;95903;-64
2023/01/06 00:30:45;;;;;;;1.10;0.67;;;5.70;99.90;5.10;101050.00;;;;4911380;28;109478;-64
2023/01/06 00:33:10;;;;;;;1.83;1.40;;;5.90;99.90;5.10;101043.00;;;;4891599;28;93078;-63
2023/01/06 00:35:36;;;;;;;2.53;1.63;;;5.30;99.90;5.10;101051.00;;;;4905381;28;122442;-64
2023/01/06 00:38:02;;;;;;;2.43;2.23;;;5.20;99.90;5.10;101054.00;;;;4908439;28;123099;-64
2023/01/06 00:40:28;;;;;;;4.53;1.73;;;6.00;99.90;5.10;101057.00;;;;4909185;28;108303;-64
2023/01/06 00:42:54;;;;;;;1.63;1.10;;;5.30;99.90;5.10;101046.00;;;;4908325;28;109324;-64
2023/01/06 00:45:19;;;;;;;1.00;0.70;;;5.70;99.90;5.10;101050.00;;;;4908670;28;120845;-64
2023/01/06 00:47:45;;;;;;;1.23;0.87;;;5.40;99.90;5.10;101052.00;;;;4908081;28;121711;-64
2023/01/06 00:50:10;;;;;;;3.27;0.93;;;5.60;99.90;5.10;101047.00;;;;4910715;28;110094;-65
2023/01/06 00:52:36;;;;;;;1.70;0.97;;;5.50;99.90;5.10;101049.00;;;;4908945;28;109467;-64
2023/01/06 00:55:02;;;;;;;1.03;0.90;;;5.30;99.90;5.10;101050.00;;;;4907446;28;116583;-65
2023/01/06 00:57:28;;;;;;;1.83;0.83;;;5.30;99.90;5.20;101050.00;;;;4910351;28;92867;-63
2023/01/06 00:59:53;;;;;;;1.10;1.00;;;5.40;99.90;5.20;101039.00;;;;4907444;28;92831;-64
2023/01/06 01:02:20;;;;;;;1.70;1.40;;;5.30;99.90;5.20;101049.00;;;;4907529;28;93848;-64
2023/01/06 01:04:46;;;;;;;2.13;1.00;;;5.40;99.90;5.20;101038.00;;;;4907800;28;93864;-63
2023/01/06 01:07:11;;;;;;;1.43;1.10;;;5.40;99.90;5.20;101052.00;;;;4906278;28;122749;-64
2023/01/06 01:09:37;;;;;;;1.37;1.13;;;5.30;99.90;5.20;101048.00;;;;4907147;28;109214;-64
2023/01/06 01:12:09;;;;;;;1.80;1.13;;;5.40;99.90;5.20;101062.00;;;;4907481;28;109008;-64
2023/01/06 01:14:47;;;;;;;1.13;1.03;;;5.40;99.90;5.20;101058.00;;;;4893199;28;92969;-64
2023/01/06 01:17:19;;;;;;;1.43;1.00;;;5.40;99.90;5.30;101054.00;;;;4909806;28;93013;-66
2023/01/06 01:19:46;;;;;;;1.37;1.10;;;5.40;99.90;5.30;101058.00;;;;4910008;28;92230;-65
2023/01/06 01:22:12;;;;;;;1.27;1.03;;;6.00;99.90;5.30;101055.00;;;;4905112;28;95431;-65
2023/01/06 01:24:38;;;;;;;0.90;0.80;;;5.40;99.90;5.30;101057.00;;;;4909358;28;93642;-65
2023/01/06 01:27:03;;;;;;;0.67;0.67;;;5.50;99.90;5.20;101046.00;;;;4906700;28;120886;-66
2023/01/06 01:29:29;;;;;;;0.73;0.73;;;5.30;99.90;5.20;101043.00;;;;4888746;28;92936;-64
2023/01/06 01:31:55;;;;;;;2.10;0.80;;;5.40;99.90;5.20;101051.00;;;;4906569;28;93172;-65
2023/01/06 01:34:21;;;;;;;1.47;1.13;;;5.80;99.90;5.10;101042.00;;;;4904101;28;122846;-64
2023/01/06 01:36:50;;;;;;;0.50;0.50;;;5.30;99.90;5.10;101043.00;;;;4906470;28;116386;-64
2023/01/06 01:39:19;;;;;;;0.70;0.70;;;5.30;99.90;5.00;101048.00;;;;4905721;28;93044;-65
2023/01/06 01:41:45;;;;;;;1.00;0.90;;;5.20;99.90;4.90;101043.00;;;;4887314;28;93034;-64
2023/01/06 01:44:50;;;;;;;0.83;0.53;;;5.90;99.90;4.80;101045.00;;;;4902614;28;93306;-65
2023/01/06 01:47:35;;;;;;;1.13;0.93;;;5.00;99.90;4.80;101035.00;;;;4904087;28;103378;-65
2023/01/06 01:50:27;;;;;;;0.60;0.60;;;5.00;99.90;4.70;101041.00;;;;4891816;28;93197;-65
2023/01/06 01:53:00;;;;;;;0.50;0.50;;;5.00;99.90;4.80;101040.00;;;;4892703;28;93984;-65
2023/01/06 01:55:27;;;;;;;0.97;0.70;;;4.30;99.90;4.70;101028.00;;;;4906374;28;105144;-66
2023/01/06 01:57:58;;;;;;;0.50;0.50;;;5.00;99.90;4.70;101034.00;;;;4889042;28;92815;-64
2023/01/06 02:00:24;;;;;;;0.83;0.80;;;4.90;99.90;4.70;101031.00;;;;4906585;28;92826;-65
2023/01/06 02:02:50;;;;;;;1.23;0.97;;;4.90;99.90;4.70;101026.00;;;;4906363;28;108669;-64
2023/01/06 02:05:20;;;;;;;1.80;1.10;;;4.80;99.90;4.70;101026.00;;;;4905086;28;123400;-64
2023/01/06 02:07:47;;;;;;;1.50;1.23;;;4.90;99.90;4.70;101027.00;;;;4904925;28;110357;-65
2023/01/06 02:10:20;;;;;;;1.10;0.90;;;5.00;99.90;4.60;101018.00;;;;4905605;28;92136;-65
2023/01/06 02:12:50;;;;;;;5.90;1.47;;;5.20;99.90;4.60;101017.00;;;;4907122;28;92967;-65
2023/01/06 02:15:23;;;;;;;0.53;0.53;;;4.80;99.90;4.60;101010.00;;;;4890088;28;112128;-65
2023/01/06 02:18:10;;;;;;;1.73;0.90;;;4.80;99.90;4.60;101019.00;;;;4884657;28;93963;-64
2023/01/06 02:20:45;;;;;;;0.73;0.70;;;4.90;99.90;4.70;101016.00;;;;4906112;28;92778;-65
2023/01/06 02:23:29;;;;;;;2.57;1.23;;;4.90;99.90;4.70;101006.00;;;;4883132;28;93000;-65
2023/01/06 02:26:52;;;;;;;1.67;1.20;;;4.80;99.90;4.70;101005.00;;;;4907714;28;92814;-64
2023/01/06 02:29:32;;;;;;;1.40;0.90;;;4.90;99.90;4.80;101000.00;;;;4860795;28;94107;-64
2023/01/06 02:32:07;;;;;;;1.57;1.47;;;5.00;99.90;4.80;101013.00;;;;4906788;28;95239;-65
2023/01/06 02:35:10;;;;;;;2.03;1.30;;;4.90;99.90;4.80;100998.00;;;;4881827;28;100781;-65
2023/01/06 02:38:07;;;;;;;1.50;1.03;;;5.00;99.90;4.80;100989.00;;;;4908649;28;92623;-67
2023/01/06 02:41:06;;;;;;;1.63;1.20;;;5.00;99.90;4.90;100992.00;;;;4916857;28;114821;-65
2023/01/06 02:43:58;;;;;;;1.70;0.93;;;5.00;99.90;5.00;100990.00;;;;4904946;28;93092;-65
2023/01/06 02:47:08;;;;;;;2.03;0.97;;;5.10;99.90;5.00;100972.00;;;;4888833;28;97350;-65
2023/01/06 02:50:11;;;;;;;2.73;0.97;;;5.20;99.90;5.00;100977.00;;;;4907893;28;92923;-65
2023/01/06 02:52:57;;;;;;;1.37;1.20;;;5.20;99.90;5.10;100968.00;;;;4882607;28;104077;-65
2023/01/06 02:55:34;;;;;;;1.60;1.13;;;5.20;99.90;5.10;100969.00;;;;4907008;28;93053;-65
2023/01/06 02:58:14;;;;;;;4.00;1.37;;;5.60;99.90;5.10;100960.00;;;;4882065;28;93047;-65
2023/01/06 03:00:53;;;;;;;0.70;0.60;;;5.30;99.90;5.20;100974.00;;;;4868616;28;94983;-65
2023/01/06 03:03:25;;;;;;;0.77;0.70;;;5.30;99.90;5.20;100968.00;;;;4888770;28;93593;-65
2023/01/06 03:05:58;;;;;;;4.63;1.07;;;5.90;99.90;5.30;100968.00;;;;4881027;28;92446;-64
2023/01/06 03:08:27;;;;;;;2.23;1.40;;;5.50;99.90;5.30;100961.00;;;;4888388;28;92976;-65
2023/01/06 03:10:55;;;;;;;1.00;0.90;;;5.50;99.90;5.30;100960.00;;;;4892009;28;94006;-64
2023/01/06 03:13:31;;;;;;;1.30;0.90;;;5.40;99.90;5.30;100942.00;;;;4886667;28;122805;-65
2023/01/06 03:15:57;;;;;;;1.47;1.23;;;5.50;99.90;5.40;100948.00;;;;4881780;28;93031;-65
2023/01/06 03:18:22;;;;;;;0.90;0.90;;;5.60;99.90;5.40;100953.00;;;;4903795;28;93344;-64
2023/01/06 03:20:52;;;;;;;0.93;0.70;;;5.90;99.90;5.40;100952.00;;;;4907491;28;123250;-66
2023/01/06 03:23:19;;;;;;;2.90;0.90;;;5.60;99.90;5.50;100957.00;;;;4890755;28;93117;-65
2023/01/06 03:25:45;;;;;;;1.83;1.23;;;5.60;99.90;5.50;100943.00;;;;4902245;28;100556;-65
2023/01/06 03:28:10;;;;;;;1.40;1.00;;;5.70;99.90;5.60;100944.00;;;;4902925;28;92821;-65
2023/01/06 03:31:09;;;;;;;2.47;0.93;;;5.70;99.90;5.60;100953.00;;;;4907748;28;122346;-66
2023/01/06 03:34:01;;;;;;;1.33;1.07;;;5.80;99.90;5.60;100954.00;;;;4895733;28;92959;-64
2023/01/06 03:37:15;;;;;;;2.00;1.17;;;5.80;99.90;5.60;100946.00;;;;4905455;28;92937;-64
2023/01/06 03:40:12;;;;;;;1.00;0.70;;;5.80;99.90;5.70;100954.00;;;;4888135;28;101477;-64
2023/01/06 03:45:58;;;;;;;1.47;0.87;;;5.90;99.90;5.80;100939.00;;;;4888475;28;92784;-65
2023/01/06 03:49:01;;;;;;;1.27;1.17;;;5.90;99.90;5.80;100942.00;;;;4905655;28;93222;-65
2023/01/06 03:51:57;;;;;;;5.30;1.20;;;6.10;99.90;5.80;100946.00;;;;4904994;28;97130;-66
2023/01/06 03:54:42;;;;;;;0.73;0.67;;;6.10;99.90;5.80;100942.00;;;;4879698;28;92910;-64
2023/01/06 03:57:17;;;;;;;2.00;1.37;;;6.00;99.90;5.80;100936.00;;;;4884987;28;92913;-64
2023/01/06 04:00:11;;;;;;;1.57;1.00;;;6.70;99.90;5.80;100934.00;;;;4904868;28;92306;-65
2023/01/06 04:02:38;;;;;;;1.70;0.97;;;6.00;99.90;5.80;100939.00;;;;4904537;28;93455;-65
2023/01/06 04:05:13;;;;;;;3.33;1.13;;;5.90;99.90;5.80;100925.00;;;;4890345;28;122045;-65
2023/01/06 04:07:41;;;;;;;1.33;0.90;;;6.10;99.90;5.90;100920.00;;;;4906182;28;93849;-65
2023/01/06 04:10:08;;;;;;;0.83;0.83;;;6.10;99.90;5.90;100926.00;;;;4906898;28;92824;-66
2023/01/06 04:12:40;;;;;;;2.73;1.70;;;6.00;99.90;5.90;100915.00;;;;4910020;28;99073;-65
2023/01/06 04:15:21;;;;;;;1.07;0.90;;;6.00;99.90;5.80;100910.00;;;;4908876;28;93241;-65
2023/01/06 04:17:48;;;;;;;1.00;0.90;;;6.00;99.90;5.80;100911.00;;;;4907709;28;93185;-65
2023/01/06 04:20:20;;;;;;;1.50;0.90;;;6.00;99.90;5.80;100916.00;;;;4908075;28;100643;-65
2023/01/06 04:22:46;;;;;;;1.03;0.97;;;6.00;99.90;5.80;100910.00;;;;4909281;28;93179;-67
2023/01/06 04:25:12;;;;;;;1.57;1.10;;;5.90;99.90;5.80;100907.00;;;;4890536;28;120910;-65
2023/01/06 04:27:37;;;;;;;1.27;1.00;;;6.00;99.90;5.80;100907.00;;;;4909684;28;92944;-65
2023/01/06 04:30:05;;;;;;;0.50;0.50;;;5.90;99.90;5.90;100907.00;;;;4885457;28;109493;-65
2023/01/06 04:32:31;;;;;;;0.90;0.83;;;6.00;99.90;5.90;100902.00;;;;4902703;28;95045;-65
2023/01/06 04:34:56;;;;;;;1.27;0.60;;;6.60;99.90;5.90;100901.00;;;;4913575;28;103108;-65
2023/01/06 04:37:22;;;;;;;1.57;1.07;;;6.00;99.90;5.90;100894.00;;;;4906566;28;124069;-65
2023/01/06 04:39:48;;;;;;;3.00;1.07;;;6.10;99.90;5.90;100890.00;;;;4912250;28;110076;-66
2023/01/06 04:42:14;;;;;;;0.73;0.60;;;6.10;99.90;5.90;100890.00;;;;4908807;28;110063;-66
2023/01/06 04:44:41;;;;;;;2.67;1.10;;;6.10;99.90;6.00;100891.00;;;;4889971;28;93121;-66
2023/01/06 04:47:08;;;;;;;1.77;1.47;;;6.10;99.90;6.00;100895.00;;;;4905984;28;94207;-65
2023/01/06 04:49:33;;;;;;;0.93;0.80;;;6.70;99.90;6.00;100888.00;;;;4908821;28;92315;-65
2023/01/06 04:51:59;;;;;;;0.80;0.80;;;6.10;99.90;6.00;100893.00;;;;4904831;28;107910;-66
2023/01/06 04:54:25;;;;;;;2.47;1.20;;;6.90;99.90;6.00;100888.00;;;;4891191;28;93012;-66
2023/01/06 04:56:50;;;;;;;3.50;1.43;;;6.20;99.90;6.10;100887.00;;;;4909099;28;122133;-66
2023/01/06 04:59:16;;;;;;;6.40;1.37;;;6.70;99.90;6.10;100880.00;;;;4907201;28;111034;-67
2023/01/06 05:01:42;;;;;;;4.07;2.40;;;6.20;99.90;6.10;100874.00;;;;4908320;28;108580;-66
2023/01/06 05:04:07;;;;;;;1.40;1.30;;;6.60;99.90;6.10;100859.00;;;;4905279;28;112195;-67
2023/01/06 05:06:34;;;;;;;1.17;1.00;;;6.60;99.90;6.10;100866.00;;;;4909946;28;122419;-66
2023/01/06 05:09:00;;;;;;;2.07;1.07;;;6.90;99.90;6.10;100855.00;;;;4908635;28;93091;-66
2023/01/06 05:11:26;;;;;;;3.33;1.73;;;6.80;99.90;6.00;100844.00;;;;4906923;28;93090;-66
2023/01/06 05:13:52;;;;;;;2.30;1.27;;;6.30;99.90;6.00;100844.00;;;;4902146;28;92625;-66
2023/01/06 05:16:33;;;;;;;1.80;1.03;;;6.70;99.90;6.00;100861.00;;;;4903503;28;93217;-66
2023/01/06 05:18:59;;;;;;;6.47;1.60;;;6.10;99.90;6.00;100844.00;;;;4911958;28;92842;-69
2023/01/06 05:21:28;;;;;;;2.27;2.03;;;6.10;99.90;5.90;100837.00;;;;4905912;28;93859;-68
2023/01/06 05:23:54;;;;;;;1.47;1.27;;;6.80;99.90;6.00;100836.00;;;;4886939;28;93352;-68
2023/01/06 05:26:23;;;;;;;3.37;1.17;;;6.10;99.90;5.90;100833.00;;;;4904517;28;117453;-67
2023/01/06 05:28:49;;;;;;;1.20;1.10;;;6.10;99.90;5.90;100845.00;;;;4888961;28;93087;-67
2023/01/06 05:31:14;;;;;;;3.80;1.60;;;6.70;99.90;6.00;100834.00;;;;4906741;28;92764;-67
2023/01/06 05:33:41;;;;;;;2.67;1.50;;;6.00;99.90;6.00;100845.00;;;;4903743;28;122969;-67
2023/01/06 05:36:10;;;;;;;4.30;0.93;;;6.40;99.90;6.00;100846.00;;;;4905535;28;122801;-66
2023/01/06 05:38:36;;;;;;;17.73;2.80;;;6.10;99.90;6.00;100844.00;;;;4888736;28;93420;-66
2023/01/06 05:41:02;;;;;;;4.30;2.30;;;6.10;99.90;6.00;100837.00;;;;4903588;28;92802;-66
2023/01/06 05:43:29;;;;;;;3.73;1.90;;;6.20;99.90;6.10;100837.00;;;;4906641;28;104702;-66
2023/01/06 05:45:55;;;;;;;1.17;1.03;;;6.70;99.90;6.10;100830.00;;;;4905146;28;122897;-66
2023/01/06 05:48:27;;;;;;;3.60;2.23;;;7.00;99.90;6.10;100836.00;;;;4905061;28;110294;-67
2023/01/06 05:51:04;;;;;;;4.23;1.63;;;6.40;99.90;6.10;100844.00;;;;4906622;28;93016;-67
2023/01/06 05:53:33;;;;;;;3.73;2.20;;;6.30;99.90;6.20;100825.00;;;;4892005;28;93570;-67
2023/01/06 05:56:07;;;;;;;4.03;1.90;;;6.30;99.90;6.20;100824.00;;;;4909977;28;113963;-67
2023/01/06 05:58:34;;;;;;;2.03;1.77;;;6.30;99.90;6.20;100827.00;;;;4911061;28;92983;-67
2023/01/06 06:01:01;;;;;;;3.57;1.83;;;6.30;99.90;6.30;100820.00;;;;4906495;28;92910;-66
2023/01/06 06:03:26;;;;;;;6.77;1.77;;;6.40;99.90;6.30;100818.00;;;;4907635;28;92507;-67
2023/01/06 06:05:52;;;;;;;2.30;2.10;;;6.90;99.90;6.30;100815.00;;;;4906016;28;121822;-66
2023/01/06 06:08:17;;;;;;;1.90;1.63;;;7.20;99.90;6.30;100817.00;;;;4906773;28;110782;-66
2023/01/06 06:10:43;;;;;;;1.43;1.33;;;6.70;99.90;6.40;100824.00;;;;4905011;28;109888;-67
2023/01/06 06:13:09;;;;;;;2.43;1.47;;;6.50;99.90;6.40;100810.00;;;;4901136;28;113132;-67
2023/01/06 06:15:34;;;;;;;2.13;1.33;;;6.40;99.90;6.40;100816.00;;;;4906976;28;122242;-67
2023/01/06 06:18:01;;;;;;;1.33;1.23;;;7.30;99.90;6.40;100813.00;;;;4904221;28;109371;-67
2023/01/06 06:20:27;;;;;;;2.03;1.63;;;6.90;99.90;6.40;100809.00;;;;4906034;28;93093;-67
2023/01/06 06:22:53;;;;;;;4.43;2.20;;;7.30;99.90;6.50;100811.00;;;;4907899;28;98202;-67
2023/01/06 06:25:19;;;;;;;3.00;1.37;;;7.40;99.90;6.50;100811.00;;;;4905467;28;93236;-68
2023/01/06 06:27:44;;;;;;;4.20;2.43;;;6.60;99.90;6.50;100812.00;;;;4891814;28;110795;-68
2023/01/06 06:30:10;;;;;;;3.63;1.83;;;6.60;99.90;6.50;100800.00;;;;4906244;28;107955;-69
2023/01/06 06:32:36;;;;;;;3.63;1.63;;;6.70;99.90;6.50;100797.00;;;;4881328;28;111616;-67
2023/01/06 06:35:02;;;;;;;2.87;1.77;;;7.00;99.90;6.50;100800.00;;;;4887373;28;93951;-68
2023/01/06 06:37:28;;;;;;;3.37;2.27;;;6.70;99.90;6.60;100805.00;;;;4902384;28;102550;-67
2023/01/06 06:39:53;;;;;;;2.83;1.70;;;6.70;99.90;6.60;100803.00;;;;4901008;28;107634;-67
2023/01/06 06:42:19;;;;;;;2.40;1.43;;;6.70;99.90;6.60;100812.00;;;;4903122;28;121301;-67
2023/01/06 06:44:44;;;;;;;3.13;1.63;;;6.70;99.90;6.60;100818.00;;;;4883861;28;121480;-67
2023/01/06 06:47:10;;;;;;;4.00;1.80;;;6.80;99.90;6.60;100814.00;;;;4901344;28;109675;-67
2023/01/06 06:49:36;;;;;;;4.73;2.27;;;7.50;99.90;6.70;100808.00;;;;4905106;28;97559;-68
2023/01/06 06:52:01;;;;;;;3.07;2.60;;;6.80;99.90;6.70;100804.00;;;;4903528;28;119537;-69
2023/01/06 06:54:27;;;;;;;4.23;2.07;;;7.10;99.90;6.70;100794.00;;;;4905773;28;121876;-70
2023/01/06 06:56:53;;;;;;;2.93;1.50;;;6.90;99.90;6.70;100798.00;;;;4899914;28;95174;-69
2023/01/06 06:59:18;;;;;;;2.20;1.63;;;6.90;99.90;6.70;100796.00;;;;4905853;28;93793;-70
2023/01/06 07:01:44;;;;;;;4.60;1.67;;;6.90;99.90;6.70;100785.00;;;;4908674;28;118257;-70
2023/01/06 07:04:10;;;;;;;2.67;1.73;;;6.90;99.90;6.70;100786.00;;;;4894825;28;100874;-69
2023/01/06 07:06:35;;;;;;;3.93;1.87;;;6.90;99.90;6.70;100776.00;;;;4900931;28;100064;-68
2023/01/06 07:09:01;;;;;;;2.73;1.87;;;7.30;99.90;6.80;100784.00;;;;4886084;28;107855;-69
2023/01/06 07:11:27;;;;;;;6.50;2.30;;;6.90;99.90;6.80;100782.00;;;;4889226;28;123615;-68
2023/01/06 07:13:53;;;;;;;2.50;1.57;;;7.60;99.90;6.80;100778.00;;;;4900443;28;122558;-69
2023/01/06 07:16:21;;;;;;;6.33;2.53;;;6.90;99.90;6.80;100771.00;;;;4901544;28;110913;-69
2023/01/06 07:18:47;;;;;;;2.47;1.83;;;7.40;99.90;6.80;100776.00;;;;4903248;28;93146;-69
2023/01/06 07:21:13;;;;;;;4.07;2.10;;;7.30;99.90;6.90;100786.00;;;;4900435;28;123148;-68
2023/01/06 07:23:38;;;;;;;5.20;2.60;;;7.50;99.90;6.90;100766.00;;;;4900006;28;122898;-69
2023/01/06 07:26:04;;;;;;;5.67;1.90;;;7.10;99.90;6.90;100775.00;;;;4906541;28;110052;-68
2023/01/06 07:28:31;;;;;;;7.37;1.80;;;7.50;99.90;6.90;100776.00;;;;4903046;28;108872;-67
2023/01/06 07:30:57;;;;;;;3.97;2.30;;;7.00;99.90;7.00;100766.00;;;;4903983;28;92982;-70
2023/01/06 07:33:23;;;;;;;3.13;2.23;;;7.80;99.90;7.00;100766.00;;;;4901620;28;108423;-69
2023/01/06 07:35:55;;;;;;;4.57;1.97;;;7.20;99.90;7.00;100760.00;;;;4897548;28;111838;-69
2023/01/06 07:38:22;;;;;;;8.50;2.00;;;7.10;99.90;7.10;100761.00;;;;4898142;28;95227;-69
2023/01/06 07:40:48;;;;;;;4.37;2.17;;;7.20;99.90;7.10;100761.00;;;;4905754;28;92815;-68
2023/01/06 07:43:15;;;;;;;3.00;1.80;;;7.80;99.90;7.10;100758.00;;;;4899728;28;93375;-69
2023/01/06 07:45:41;;;;;;;5.00;2.43;;;7.30;99.90;7.20;100770.00;;;;4905665;28;92840;-68
2023/01/06 07:48:08;;;;;;;4.60;2.50;;;7.30;99.90;7.20;100761.00;;;;4892139;28;107553;-67
2023/01/06 07:50:35;;;;;;;3.80;2.37;;;7.30;99.90;7.30;100765.00;;;;4907387;28;94027;-68
2023/01/06 07:53:02;;;;;;;3.60;2.20;;;7.40;99.90;7.30;100767.00;;;;4904483;28;93716;-68
2023/01/06 07:55:28;;;;;;;3.63;2.40;;;7.40;99.90;7.30;100751.00;;;;4904188;28;111310;-68
2023/01/06 07:57:54;;;;;;;12.83;5.53;;;7.50;99.90;7.40;100758.00;;;;4908470;28;92957;-69
2023/01/06 08:00:21;;;;;;;12.43;4.57;;;7.80;99.90;7.40;100754.00;;;;4890671;28;93522;-69
2023/01/06 08:02:47;;;;;;;9.53;5.90;;;7.50;99.90;7.50;100750.00;;;;4903537;28;93303;-71
2023/01/06 08:05:13;;;;;;;6.27;3.33;;;7.60;99.90;7.50;100748.00;;;;4908021;28;94285;-70
2023/01/06 08:07:39;;;;;;;9.03;5.17;;;7.60;99.90;7.50;100741.00;;;;4905493;28;108530;-70
2023/01/06 08:10:06;;;;;;;7.93;4.37;;;7.60;99.90;7.60;100744.00;;;;4888609;28;121109;-69
2023/01/06 08:12:31;;;;;;;4.17;2.10;;;7.60;99.90;7.60;100743.00;;;;4906606;28;95466;-68
2023/01/06 08:14:57;;;;;;;8.07;4.83;;;7.70;99.90;7.60;100732.00;;;;4904839;28;110849;-68
2023/01/06 08:17:23;;;;;;;12.77;6.70;;;7.80;99.90;7.60;100732.00;;;;4899606;28;106992;-69
2023/01/06 08:19:48;;;;;;;3.80;2.27;;;7.80;99.90;7.70;100733.00;;;;4905493;28;122303;-69
2023/01/06 08:22:14;;;;;;;2.73;2.13;;;7.80;99.90;7.70;100727.00;;;;4903196;28;92922;-68
2023/01/06 08:24:40;;;;;;;6.07;3.90;;;8.00;99.90;7.80;100726.00;;;;4898281;28;110036;-68
2023/01/06 08:27:05;;;;;;;5.03;2.80;;;7.80;99.90;7.80;100738.00;;;;4905564;28;92971;-67
2023/01/06 08:29:31;;;;;;;4.77;2.37;;;7.90;99.90;7.90;100739.00;;;;4907903;28;122868;-68
2023/01/06 08:31:57;;;;;;;2.07;1.83;;;8.00;99.90;7.90;100740.00;;;;4901462;28;121511;-69
2023/01/06 08:34:22;;;;;;;8.10;2.10;;;8.00;99.90;8.00;100732.00;;;;4904721;28;111835;-70
2023/01/06 08:36:48;;;;;;;5.27;2.17;;;8.10;99.90;8.00;100726.00;;;;4903382;28;95150;-70
2023/01/06 08:39:14;;;;;;;3.23;2.30;;;8.10;99.90;8.10;100730.00;;;;4875588;28;121604;-69
2023/01/06 08:41:41;;;;;;;2.10;1.73;;;8.20;99.90;8.20;100724.00;;;;4905922;28;122629;-69
2023/01/06 08:44:07;;;;;;;5.57;2.57;;;9.90;99.90;8.30;100736.00;;;;4899468;28;101319;-69
2023/01/06 08:46:33;;;;;;;5.13;2.37;;;8.40;99.90;8.40;100746.00;;;;4905675;28;92941;-68
2023/01/06 08:48:59;;;;;;;7.20;2.27;;;8.50;99.90;8.50;100755.00;;;;4904463;28;100866;-69
2023/01/06 08:51:27;;;;;;;2.03;1.77;;;8.60;99.90;8.60;100753.00;;;;4902263;28;110735;-68
2023/01/06 08:53:53;;;;;;;3.00;1.77;;;8.60;99.90;8.60;100753.00;;;;4903402;28;92621;-69
2023/01/06 08:56:29;;;;;;;3.53;1.80;;;8.70;99.90;8.70;100744.00;;;;4901147;28;99928;-69
2023/01/06 08:59:01;;;;;;;2.73;1.50;;;8.80;99.90;8.70;100747.00;;;;4900341;28;93744;-69
2023/01/06 09:01:34;;;;;;;2.77;1.20;;;8.80;99.90;8.80;100744.00;;;;4886308;28;93991;-69
2023/01/06 09:04:04;;;;;;;1.87;1.67;;;8.90;99.90;8.80;100739.00;;;;4885749;28;98457;-70
2023/01/06 09:06:30;;;;;;;6.33;2.07;;;8.90;99.90;8.90;100742.00;;;;4903477;28;92966;-67
2023/01/06 09:08:57;;;;;;;3.53;1.83;;;9.00;99.90;8.90;100747.00;;;;4904018;28;93366;-67
2023/01/06 09:11:23;;;;;;;2.87;1.90;;;9.00;99.90;9.00;100745.00;;;;4905509;28;111938;-69
2023/01/06 09:13:50;;;;;;;2.30;1.70;;;9.10;99.90;9.00;100747.00;;;;4889181;28;93071;-70
2023/01/06 09:16:16;;;;;;;1.60;1.03;;;9.10;99.90;9.10;100737.00;;;;4906534;28;93386;-68
2023/01/06 09:18:49;;;;;;;2.17;1.50;;;9.10;99.90;9.10;100745.00;;;;4902368;28;92787;-68
2023/01/06 09:21:20;;;;;;;2.97;1.63;;;9.20;99.90;9.10;100737.00;;;;4904577;28;93041;-69
2023/01/06 09:23:47;;;;;;;1.77;1.27;;;9.20;99.90;9.20;100745.00;;;;4903716;28;104498;-69
2023/01/06 09:26:14;;;;;;;3.77;1.73;;;9.20;99.90;9.30;100747.00;;;;4904884;28;93903;-69
2023/01/06 09:28:40;;;;;;;3.13;1.60;;;9.30;99.90;9.30;100742.00;;;;4907976;28;93196;-69
2023/01/06 09:31:06;;;;;;;2.30;1.37;;;9.40;99.90;9.40;100741.00;;;;4897028;28;92978;-69
2023/01/06 09:33:32;;;;;;;1.63;1.40;;;9.50;99.90;9.50;100747.00;;;;4907535;28;92994;-69
2023/01/06 09:35:58;;;;;;;3.73;1.73;;;9.50;99.90;9.50;100751.00;;;;4901386;28;101030;-69
2023/01/06 09:38:25;;;;;;;2.77;1.80;;;9.60;99.90;9.60;100758.00;;;;4898316;28;121042;-69
2023/01/06 09:41:25;;;;;;;1.57;1.03;;;9.60;99.90;9.60;100753.00;;;;4905957;28;93117;-70
2023/01/06 09:44:06;;;;;;;3.33;1.47;;;9.70;99.90;9.70;100745.00;;;;4870762;28;98545;-69
2023/01/06 09:46:37;;;;;;;2.77;1.37;;;9.80;99.90;9.80;100737.00;;;;4902669;28;92843;-70
2023/01/06 09:49:26;;;;;;;1.77;1.43;;;9.80;99.90;9.80;100732.00;;;;4887533;28;93196;-68
2023/01/06 09:52:02;;;;;;;1.93;1.27;;;9.80;99.90;9.80;100726.00;;;;4905341;28;114499;-68
2023/01/06 09:54:39;;;;;;;1.97;1.30;;;10.40;99.90;9.80;100722.00;;;;4880945;28;93225;-69
2023/01/06 09:57:26;;;;;;;1.47;1.37;;;9.90;99.90;9.80;100711.00;;;;4905976;28;93204;-68
2023/01/06 10:00:04;;;;;;;2.03;1.50;;;9.90;99.90;9.90;100712.00;;;;4873186;28;107277;-69
2023/01/06 10:02:38;;;;;;;2.50;1.37;;;9.90;99.90;9.90;100714.00;;;;4886732;28;95573;-68
2023/01/06 10:05:29;;;;;;;4.33;1.63;;;9.90;99.90;9.90;100715.00;;;;4903433;28;97999;-69
2023/01/06 10:08:54;;;;;;;2.57;1.53;;;10.00;99.90;9.90;100718.00;;;;4904283;28;99607;-69
2023/01/06 10:11:57;;;;;;;2.50;1.50;;;10.00;99.90;9.90;100699.00;;;;4889486;28;91972;-69
2023/01/06 10:15:03;;;;;;;2.40;1.23;;;10.00;99.90;10.00;100708.00;;;;4904682;28;92855;-69
2023/01/06 10:18:25;;;;;;;1.53;1.30;;;10.10;99.90;9.90;100701.00;;;;4893334;28;93304;-69
2023/01/06 10:21:16;;;;;;;1.90;1.50;;;10.10;99.90;10.00;100710.00;;;;4852375;28;94818;-68
2023/01/06 10:23:50;;;;;;;1.37;1.17;;;10.00;99.90;10.00;100703.00;;;;4902790;28;93831;-68
2023/01/06 10:26:30;;;;;;;4.20;1.40;;;10.00;99.90;9.90;100714.00;;;;4874899;28;110995;-70
2023/01/06 10:29:07;;;;;;;2.53;1.23;;;10.00;99.90;9.90;100699.00;;;;4886549;28;92876;-68
2023/01/06 10:31:37;;;;;;;1.40;1.27;;;10.30;99.90;9.90;100694.00;;;;4887440;28;102377;-68
2023/01/06 10:34:21;;;;;;;3.73;2.80;;;10.70;99.90;9.90;100692.00;;;;4886097;28;123490;-68
2023/01/06 10:36:56;;;;;;;1.33;1.20;;;10.00;99.90;9.90;100692.00;;;;4887053;28;92899;-69
2023/01/06 10:39:25;;;;;;;2.07;1.23;;;10.00;99.90;10.00;100677.00;;;;4878088;28;92413;-68
2023/01/06 10:44:50;;;;;;;0.77;0.60;;;10.10;99.90;10.00;100670.00;;;;4903108;28;92852;-68
2023/01/06 10:47:31;;;;;;;1.83;0.60;;;10.10;99.90;10.00;100663.00;;;;4904229;28;121707;-68
2023/01/06 10:49:58;;;;;;;0.57;0.40;;;10.10;99.90;10.00;100659.00;;;;4884906;28;102748;-67
2023/01/06 10:52:25;;;;;;;0.40;0.37;;;10.10;99.90;10.00;100652.00;;;;4885098;28;94062;-67
2023/01/06 10:54:56;;;;;;;0.97;0.50;;;10.10;99.90;10.00;100643.00;;;;4898929;28;117234;-67
2023/01/06 10:57:31;;;;;;;0.60;0.30;;;10.10;99.90;10.00;100632.00;;;;4899041;28;114043;-67
2023/01/06 11:00:17;;;;;;;0.67;0.37;;;10.10;99.90;10.00;100633.00;;;;4883925;28;97950;-67
2023/01/06 11:02:53;;;;;;;0.97;0.50;;;10.10;99.90;10.00;100626.00;;;;4900354;28;92960;-67
2023/01/06 11:05:23;;;;;;;0.30;0.30;;;10.10;99.90;10.10;100631.00;;;;4902405;28;92853;-68
2023/01/06 11:08:04;;;;;;;0.33;0.33;;;10.10;99.90;10.10;100633.00;;;;4901170;28;93406;-68
2023/01/06 11:10:49;;;;;;;0.50;0.33;;;10.20;99.90;10.10;100628.00;;;;4887745;28;93131;-68
2023/01/06 11:13:32;;;;;;;0.10;0.10;;;10.20;99.90;10.10;100639.00;;;;4884537;28;99337;-67
2023/01/06 11:16:03;;;;;;;0.47;0.30;;;10.20;99.90;10.20;100623.00;;;;4880035;28;92964;-66
2023/01/06 11:18:34;;;;;;;0.13;0.13;;;10.30;99.90;10.20;100626.00;;;;4887232;28;94285;-66
2023/01/06 11:21:11;;;;;;;0.43;0.40;;;10.30;99.90;10.30;100622.00;;;;4891726;28;93222;-67
2023/01/06 11:23:42;;;;;;;0.50;0.40;;;10.40;99.90;10.30;100620.00;;;;4905501;28;93063;-67